createdAt,value
2022-11-25T00:01:52.536Z,-1.46
2022-11-25T00:04:21.304Z,-1.49
2022-11-25T00:06:49.561Z,-1.46
2022-11-25T00:09:17.851Z,-1.48
2022-11-25T00:11:45.985Z,-1.48
2022-11-25T00:14:16.328Z,-1.45
2022-11-25T00:16:47.955Z,-1.38
2022-11-25T00:19:17.831Z,-1.34
2022-11-25T00:21:45.752Z,-1.28
2022-11-25T00:24:15.658Z,-1.28
2022-11-25T00:26:44.140Z,-1.25
2022-11-25T00:29:14.005Z,-1.25
2022-11-25T00:31:42.438Z,-1.26
2022-11-25T00:34:14.112Z,-1.31
2022-11-25T00:36:42.873Z,-1.26
2022-11-25T00:39:14.374Z,-1.29
2022-11-25T00:42:01.824Z,-1.28
2022-11-25T00:44:36.294Z,-1.23
2022-11-25T00:47:17.013Z,-1.20
2022-11-25T00:49:47.986Z,-1.20
2022-11-25T00:52:18.747Z,-1.19
2022-11-25T00:54:50.074Z,-1.18
2022-11-25T00:57:19.907Z,-1.16
2022-11-25T00:59:49.421Z,-1.11
2022-11-25T01:02:18.277Z,-1.14
2022-11-25T01:04:46.926Z,-1.14
2022-11-25T01:07:17.716Z,-1.09
2022-11-25T01:09:46.333Z,-1.15
2022-11-25T01:12:14.797Z,-1.19
2022-11-25T01:14:42.647Z,-1.23
2022-11-25T01:17:11.332Z,-1.24
2022-11-25T01:19:40.829Z,-1.25
2022-11-25T01:22:09.789Z,-1.27
2022-11-25T01:24:38.141Z,-1.25
2022-11-25T01:27:07.083Z,-1.22
2022-11-25T01:29:35.612Z,-1.23
2022-11-25T01:32:04.395Z,-1.27
2022-11-25T01:34:34.833Z,-1.23
2022-11-25T01:37:03.279Z,-1.23
2022-11-25T01:39:33.111Z,-1.23
2022-11-25T01:42:03.043Z,-1.31
2022-11-25T01:44:33.179Z,-1.22
2022-11-25T01:47:11.885Z,-1.25
2022-11-25T01:49:44.913Z,-1.29
2022-11-25T01:52:24.595Z,-1.28
2022-11-25T01:55:12.124Z,-1.22
2022-11-25T01:57:47.645Z,-1.21
2022-11-25T02:00:17.069Z,-1.22
2022-11-25T02:02:53.753Z,-1.25
2022-11-25T02:05:57.650Z,-1.27
2022-11-25T02:08:27.310Z,-1.26
2022-11-25T02:10:56.297Z,-1.26
2022-11-25T02:13:25.334Z,-1.20
2022-11-25T02:15:53.286Z,-1.16
2022-11-25T02:18:22.344Z,-1.09
2022-11-25T02:20:50.305Z,-1.16
2022-11-25T02:23:26.171Z,-1.09
2022-11-25T02:25:56.029Z,-1.12
2022-11-25T02:28:27.539Z,-1.12
2022-11-25T02:30:55.456Z,-1.17
2022-11-25T02:33:26.794Z,-1.11
2022-11-25T02:35:59.900Z,-1.06
2022-11-25T02:38:51.950Z,-1.09
2022-11-25T02:41:41.951Z,-1.12
2022-11-25T02:44:11.042Z,-1.15
2022-11-25T02:46:40.430Z,-1.17
2022-11-25T02:49:10.156Z,-1.14
2022-11-25T02:51:41.335Z,-1.11
2022-11-25T02:54:12.010Z,-1.11
2022-11-25T02:56:40.684Z,-1.11
2022-11-25T02:59:11.184Z,-1.08
2022-11-25T03:01:40.006Z,-1.06
2022-11-25T03:04:10.592Z,-0.99
2022-11-25T03:06:38.301Z,-1.01
2022-11-25T03:09:08.649Z,-0.96
2022-11-25T03:11:57.671Z,-0.95
2022-11-25T03:14:26.566Z,-0.98
2022-11-25T03:16:54.617Z,-0.97
2022-11-25T03:19:23.171Z,-0.98
2022-11-25T03:21:53.103Z,-1.01
2022-11-25T03:24:21.674Z,-0.95
2022-11-25T03:26:50.949Z,-0.93
2022-11-25T03:29:20.064Z,-0.95
2022-11-25T03:31:48.222Z,-0.95
2022-11-25T03:34:16.629Z,-0.85
2022-11-25T03:36:44.469Z,-0.82
2022-11-25T03:39:12.761Z,-0.82
2022-11-25T03:41:41.179Z,-0.83
2022-11-25T03:44:09.515Z,-0.87
2022-11-25T03:46:37.664Z,-0.80
2022-11-25T03:49:08.410Z,-0.82
2022-11-25T03:51:36.250Z,-0.77
2022-11-25T03:54:04.862Z,-0.78
2022-11-25T03:56:48.511Z,-0.71
2022-11-25T03:59:17.014Z,-0.70
2022-11-25T04:01:44.834Z,-0.75
2022-11-25T04:04:15.523Z,-0.76
2022-11-25T04:06:44.039Z,-0.73
2022-11-25T04:09:14.516Z,-0.71
2022-11-25T04:12:02.171Z,-0.73
2022-11-25T04:14:39.424Z,-0.80
2022-11-25T04:17:07.515Z,-0.76
2022-11-25T04:19:37.452Z,-0.83
2022-11-25T04:22:05.280Z,-0.80
2022-11-25T04:24:37.717Z,-0.78
2022-11-25T04:27:06.365Z,-0.81
2022-11-25T04:29:34.790Z,-0.83
2022-11-25T04:32:05.496Z,-0.82
2022-11-25T04:34:34.522Z,-0.77
2022-11-25T04:37:03.361Z,-0.76
2022-11-25T04:39:32.260Z,-0.75
2022-11-25T04:42:24.610Z,-0.70
2022-11-25T04:45:21.030Z,-0.66
2022-11-25T04:47:41.220Z,-0.71
2022-11-25T04:50:18.826Z,-0.67
2022-11-25T04:52:57.194Z,-0.66
2022-11-25T04:55:25.843Z,-0.66
2022-11-25T04:57:53.842Z,-0.65
2022-11-25T05:00:22.345Z,-0.62
2022-11-25T05:02:50.493Z,-0.66
2022-11-25T05:05:21.760Z,-0.67
2022-11-25T05:07:50.532Z,-0.60
2022-11-25T05:10:21.224Z,-0.71
2022-11-25T05:12:51.613Z,-0.62
2022-11-25T05:15:23.298Z,-0.61
2022-11-25T05:17:51.311Z,-0.59
2022-11-25T05:20:31.614Z,-0.61
2022-11-25T05:22:59.583Z,-0.59
2022-11-25T05:25:28.005Z,-0.57
2022-11-25T05:28:14.396Z,-0.57
2022-11-25T05:30:46.031Z,-0.52
2022-11-25T05:33:14.166Z,-0.55
2022-11-25T05:35:42.781Z,-0.52
2022-11-25T05:38:10.817Z,-0.55
2022-11-25T05:40:40.130Z,-0.57
2022-11-25T05:43:13.894Z,-0.58
2022-11-25T05:45:42.811Z,-0.50
2022-11-25T05:48:12.286Z,-0.51
2022-11-25T05:50:40.931Z,-0.53
2022-11-25T05:53:17.606Z,-0.53
2022-11-25T05:55:58.089Z,-0.52
2022-11-25T05:58:44.442Z,-0.52
2022-11-25T06:01:14.214Z,-0.52
2022-11-25T06:03:42.994Z,-0.48
2022-11-25T06:06:12.459Z,-0.57
2022-11-25T06:08:40.761Z,-0.53
2022-11-25T06:11:14.761Z,-0.53
2022-11-25T06:13:45.317Z,-0.56
2022-11-25T06:16:17.884Z,-0.56
2022-11-25T06:18:50.184Z,-0.55
2022-11-25T06:21:19.618Z,-0.54
2022-11-25T06:23:47.962Z,-0.52
2022-11-25T06:26:23.242Z,-0.49
2022-11-25T06:28:56.430Z,-0.49
2022-11-25T06:31:26.768Z,-0.50
2022-11-25T06:34:07.086Z,-0.45
2022-11-25T06:36:35.741Z,-0.54
2022-11-25T06:39:09.181Z,-0.50
2022-11-25T06:41:41.973Z,-0.59
2022-11-25T06:44:09.852Z,-0.65
2022-11-25T06:46:37.891Z,-0.70
2022-11-25T06:49:06.200Z,-0.68
2022-11-25T06:51:34.533Z,-0.70
2022-11-25T06:54:02.783Z,-0.68
2022-11-25T06:56:31.390Z,-0.60
2022-11-25T06:58:59.525Z,-0.59
2022-11-25T07:01:30.097Z,-0.48
2022-11-25T07:04:05.636Z,-0.51
2022-11-25T07:06:34.298Z,-0.53
2022-11-25T07:09:02.503Z,-0.55
2022-11-25T07:11:33.182Z,-0.57
2022-11-25T07:14:03.510Z,-0.62
2022-11-25T07:16:32.991Z,-0.54
2022-11-25T07:19:05.478Z,-0.49
2022-11-25T07:21:36.431Z,-0.48
2022-11-25T07:24:06.912Z,-0.42
2022-11-25T07:26:38.692Z,-0.42
2022-11-25T07:29:23.534Z,-0.37
2022-11-25T07:31:57.591Z,-0.32
2022-11-25T07:34:25.762Z,-0.28
2022-11-25T07:36:53.958Z,-0.33
2022-11-25T07:39:23.920Z,-0.22
2022-11-25T07:41:54.760Z,-0.17
2022-11-25T07:44:23.074Z,-0.19
2022-11-25T07:46:54.861Z,-0.18
2022-11-25T07:49:27.554Z,-0.12
2022-11-25T07:51:59.910Z,-0.11
2022-11-25T07:54:28.202Z,-0.10
2022-11-25T07:56:56.969Z,-0.08
2022-11-25T07:59:25.565Z,-0.19
2022-11-25T08:01:55.649Z,-0.10
2022-11-25T08:04:24.299Z,-0.08
2022-11-25T08:06:55.608Z,-0.05
2022-11-25T08:09:24.390Z,-0.03
2022-11-25T08:11:53.216Z,-0.07
2022-11-25T08:14:21.847Z,-0.06
2022-11-25T08:16:50.299Z,-0.02
2022-11-25T08:19:18.887Z,-0.05
2022-11-25T08:21:50.437Z,-0.06
2022-11-25T08:24:21.313Z,-0.04
2022-11-25T08:26:49.915Z,-0.02
2022-11-25T08:29:19.511Z,-0.06
2022-11-25T08:31:48.190Z,0.01
2022-11-25T08:34:25.686Z,0.02
2022-11-25T08:37:00.291Z,0.02
2022-11-25T08:39:51.093Z,0.02
2022-11-25T08:42:17.417Z,0.02
2022-11-25T08:44:45.556Z,0.02
2022-11-25T08:47:13.980Z,0.06
2022-11-25T08:49:42.126Z,0.14
2022-11-25T08:52:11.250Z,0.08
2022-11-25T08:54:39.637Z,-0.02
2022-11-25T08:57:08.475Z,-0.08
2022-11-25T08:59:37.356Z,-0.04
2022-11-25T09:02:06.800Z,-0.09
2022-11-25T09:04:34.947Z,-0.10
2022-11-25T09:07:05.010Z,-0.18
2022-11-25T09:09:34.149Z,-0.10
2022-11-25T09:12:06.273Z,-0.07
2022-11-25T09:14:36.106Z,-0.01
2022-11-25T09:17:09.550Z,-0.01
2022-11-25T09:19:37.786Z,0.07
2022-11-25T09:22:08.445Z,0.05
2022-11-25T09:24:36.864Z,0.11
2022-11-25T09:27:05.331Z,0.17
2022-11-25T09:29:33.234Z,0.24
2022-11-25T09:32:02.678Z,0.32
2022-11-25T09:34:30.742Z,0.37
2022-11-25T09:36:59.223Z,0.33
2022-11-25T09:39:29.999Z,0.32
2022-11-25T09:42:38.747Z,0.33
2022-11-25T09:45:50.848Z,0.33
2022-11-25T09:48:41.307Z,0.33
2022-11-25T09:51:25.577Z,0.34
2022-11-25T09:53:57.668Z,0.33
2022-11-25T09:56:48.784Z,0.31
2022-11-25T09:59:26.415Z,0.32
2022-11-25T10:01:59.349Z,0.28
2022-11-25T10:04:33.433Z,0.30
2022-11-25T10:07:04.129Z,0.35
2022-11-25T10:09:35.606Z,0.35
2022-11-25T10:12:07.222Z,0.36
2022-11-25T10:14:53.362Z,0.38
2022-11-25T10:17:27.034Z,0.40
2022-11-25T10:20:06.271Z,0.38
2022-11-25T10:22:34.911Z,0.42
2022-11-25T10:25:13.415Z,0.35
2022-11-25T10:27:53.740Z,0.28
2022-11-25T10:30:25.381Z,0.27
2022-11-25T10:33:02.532Z,0.25
2022-11-25T10:35:36.614Z,0.33
2022-11-25T10:38:08.166Z,0.37
2022-11-25T10:40:36.712Z,0.40
2022-11-25T10:43:13.410Z,0.47
2022-11-25T10:45:58.807Z,0.53
2022-11-25T10:49:04.576Z,0.47
2022-11-25T10:51:37.572Z,0.50
2022-11-25T10:54:39.010Z,0.49
2022-11-25T10:57:21.196Z,0.42
2022-11-25T10:59:58.543Z,0.40
2022-11-25T11:02:38.263Z,0.36
2022-11-25T11:05:10.542Z,0.45
2022-11-25T11:07:46.374Z,0.43
2022-11-25T11:10:15.707Z,0.46
2022-11-25T11:13:04.758Z,0.52
2022-11-25T11:15:44.698Z,0.52
2022-11-25T11:18:20.054Z,0.62
2022-11-25T11:20:50.212Z,0.58
2022-11-25T11:23:18.794Z,0.64
2022-11-25T11:26:06.847Z,0.60
2022-11-25T11:28:36.452Z,0.65
2022-11-25T11:31:18.172Z,0.68
2022-11-25T11:34:23.291Z,0.71
2022-11-25T11:37:07.969Z,0.70
2022-11-25T11:40:03.171Z,0.68
2022-11-25T11:43:22.066Z,0.70
2022-11-25T11:46:15.837Z,0.70
2022-11-25T11:49:08.106Z,0.69
2022-11-25T11:51:44.908Z,0.71
2022-11-25T11:54:43.747Z,0.76
2022-11-25T11:57:24.091Z,0.75
2022-11-25T12:00:04.711Z,0.78
2022-11-25T12:02:46.419Z,0.81
2022-11-25T12:05:22.674Z,0.81
2022-11-25T12:08:19.107Z,0.91
2022-11-25T12:11:05.649Z,0.95
2022-11-25T12:14:07.757Z,0.99
2022-11-25T12:16:45.303Z,0.92
2022-11-25T12:19:23.772Z,0.98
2022-11-25T12:21:57.511Z,1.01
2022-11-25T12:24:43.742Z,1.00
2022-11-25T12:27:19.519Z,1.06
2022-11-25T12:30:02.843Z,0.95
2022-11-25T12:32:31.523Z,0.93
2022-11-25T12:35:12.209Z,0.95
2022-11-25T12:37:47.836Z,1.01
2022-11-25T12:40:20.665Z,1.04
2022-11-25T12:42:49.632Z,1.08
2022-11-25T12:45:20.525Z,1.05
2022-11-25T12:47:48.904Z,1.12
2022-11-25T12:50:39.342Z,1.09
2022-11-25T12:53:24.544Z,1.13
2022-11-25T12:55:53.827Z,1.14
2022-11-25T12:58:24.896Z,1.16
2022-11-25T13:01:14.904Z,1.12
2022-11-25T13:04:10.677Z,1.16
2022-11-25T13:07:08.266Z,1.17
2022-11-25T13:10:00.501Z,1.20
2022-11-25T13:12:50.783Z,1.14
2022-11-25T13:15:22.462Z,1.12
2022-11-25T13:17:52.545Z,1.15
2022-11-25T13:20:36.090Z,1.13
2022-11-25T13:23:20.474Z,1.16
2022-11-25T13:25:50.246Z,1.09
2022-11-25T13:28:37.748Z,1.08
2022-11-25T13:31:23.943Z,1.01
2022-11-25T13:33:57.795Z,1.02
2022-11-25T13:36:43.813Z,1.06
2022-11-25T13:39:34.556Z,1.05
2022-11-25T13:42:05.945Z,1.04
2022-11-25T13:44:36.178Z,1.08
2022-11-25T13:47:28.965Z,1.08
2022-11-25T13:50:21.767Z,1.07
2022-11-25T13:53:08.895Z,1.06
2022-11-25T13:55:40.182Z,1.05
2022-11-25T13:58:16.781Z,0.98
2022-11-25T14:00:51.048Z,0.99
2022-11-25T14:03:18.973Z,1.02
2022-11-25T14:06:24.791Z,1.03
2022-11-25T14:08:59.272Z,1.05
2022-11-25T14:11:53.607Z,1.04
2022-11-25T14:14:49.483Z,1.04
2022-11-25T14:18:01.821Z,1.03
2022-11-25T14:20:35.420Z,1.03
2022-11-25T14:23:22.412Z,1.02
2022-11-25T14:26:05.946Z,1.02
2022-11-25T14:28:45.363Z,1.00
2022-11-25T14:31:17.939Z,1.01
2022-11-25T14:33:56.474Z,1.04
2022-11-25T14:36:32.591Z,1.02
2022-11-25T14:39:06.435Z,1.07
2022-11-25T14:41:50.520Z,1.04
2022-11-25T14:44:23.183Z,0.99
2022-11-25T14:46:59.058Z,0.93
2022-11-25T14:52:49.452Z,0.90
2022-11-25T14:55:28.450Z,0.94
2022-11-25T14:57:57.217Z,0.96
2022-11-25T15:00:28.516Z,0.96
2022-11-25T15:03:02.386Z,0.97
2022-11-25T15:05:41.543Z,0.95
2022-11-25T15:08:14.337Z,0.97
2022-11-25T15:10:52.822Z,0.93
2022-11-25T15:13:34.571Z,1.03
2022-11-25T15:16:15.637Z,1.08
2022-11-25T15:18:47.650Z,1.10
2022-11-25T15:21:17.068Z,1.10
2022-11-25T15:23:45.068Z,1.11
2022-11-25T15:26:21.421Z,1.15
2022-11-25T15:28:56.116Z,1.14
2022-11-25T15:31:42.711Z,1.16
2022-11-25T15:34:15.439Z,1.07
2022-11-25T15:36:44.604Z,1.13
2022-11-25T15:39:28.271Z,1.12
2022-11-25T15:42:18.305Z,1.11
2022-11-25T15:45:01.384Z,1.16
2022-11-25T15:47:33.480Z,1.17
2022-11-25T15:50:04.130Z,1.19
2022-11-25T15:52:36.004Z,1.20
2022-11-25T15:55:19.172Z,1.19
2022-11-25T15:57:50.323Z,1.23
2022-11-25T16:00:25.538Z,1.22
2022-11-25T16:02:57.890Z,1.17
2022-11-25T16:05:28.646Z,1.13
2022-11-25T16:07:59.475Z,1.11
2022-11-25T16:10:46.291Z,1.09
2022-11-25T16:13:23.741Z,1.09
2022-11-25T16:16:00.702Z,1.09
2022-11-25T16:18:55.582Z,1.06
2022-11-25T16:21:30.724Z,1.01
2022-11-25T16:24:38.818Z,1.02
2022-11-25T16:27:29.860Z,1.01
2022-11-25T16:30:31.183Z,0.98
2022-11-25T16:32:59.202Z,1.01
2022-11-25T16:35:28.041Z,0.94
2022-11-25T16:37:58.451Z,0.85
2022-11-25T16:40:28.165Z,0.86
2022-11-25T16:42:56.730Z,0.88
2022-11-25T16:45:28.463Z,0.91
2022-11-25T16:47:57.050Z,0.80
2022-11-25T16:50:25.617Z,0.81
2022-11-25T16:52:53.765Z,0.83
2022-11-25T16:55:23.277Z,0.85
2022-11-25T16:57:54.672Z,0.89
2022-11-25T17:00:23.370Z,0.90
2022-11-25T17:02:51.663Z,0.89
2022-11-25T17:05:25.640Z,0.86
2022-11-25T17:07:53.820Z,0.90
2022-11-25T17:10:22.362Z,0.93
2022-11-25T17:12:50.746Z,0.85
2022-11-25T17:15:22.700Z,0.87
2022-11-25T17:17:51.088Z,0.87
2022-11-25T17:20:25.723Z,0.93
2022-11-25T17:22:54.876Z,0.91
2022-11-25T17:25:24.027Z,0.93
2022-11-25T17:27:52.702Z,0.94
2022-11-25T17:30:25.953Z,0.90
2022-11-25T17:32:58.821Z,0.85
2022-11-25T17:35:27.831Z,0.89
2022-11-25T17:38:02.114Z,0.91
2022-11-25T17:40:30.532Z,0.87
2022-11-25T17:42:58.331Z,0.85
2022-11-25T17:45:27.025Z,0.84
2022-11-25T17:47:55.875Z,0.82
2022-11-25T17:50:26.294Z,0.82
2022-11-25T17:52:54.326Z,0.75
2022-11-25T17:55:23.065Z,0.77
2022-11-25T17:57:51.462Z,0.81
2022-11-25T18:00:21.383Z,0.82
2022-11-25T18:02:50.155Z,0.82
2022-11-25T18:05:23.732Z,0.79
2022-11-25T18:07:52.428Z,0.80
2022-11-25T18:10:23.643Z,0.81
2022-11-25T18:12:52.924Z,0.80
2022-11-25T18:15:25.111Z,0.83
2022-11-25T18:18:00.126Z,0.89
2022-11-25T18:20:31.316Z,0.92
2022-11-25T18:22:59.902Z,0.95
2022-11-25T18:25:31.299Z,1.00
2022-11-25T18:28:00.238Z,0.99
2022-11-25T18:30:30.921Z,0.97
2022-11-25T18:32:59.066Z,0.94
2022-11-25T18:35:36.466Z,0.96
2022-11-25T18:38:05.699Z,0.91
2022-11-25T18:40:35.662Z,0.89
2022-11-25T18:43:05.218Z,0.88
2022-11-25T18:45:37.553Z,0.92
2022-11-25T18:48:23.583Z,0.99
2022-11-25T18:50:56.097Z,0.92
2022-11-25T18:53:24.040Z,0.96
2022-11-25T18:55:52.291Z,0.94
2022-11-25T18:58:22.527Z,0.97
2022-11-25T19:00:52.841Z,0.99
2022-11-25T19:03:23.279Z,1.00
2022-11-25T19:05:54.393Z,0.95
2022-11-25T19:08:22.658Z,0.87
2022-11-25T19:10:51.055Z,0.87
2022-11-25T19:13:26.113Z,0.91
2022-11-25T19:15:54.663Z,0.97
2022-11-25T19:18:25.732Z,0.99
2022-11-25T19:20:54.117Z,1.04
2022-11-25T19:23:28.979Z,1.08
2022-11-25T19:26:08.257Z,1.11
2022-11-25T19:28:36.880Z,1.14
2022-11-25T19:31:06.059Z,1.12
2022-11-25T19:33:39.108Z,1.06
2022-11-25T19:36:09.882Z,1.02
2022-11-25T19:38:38.377Z,0.99
2022-11-25T19:41:08.388Z,1.01
2022-11-25T19:43:36.795Z,1.05
2022-11-25T19:46:05.781Z,1.11
2022-11-25T19:48:39.054Z,1.14
2022-11-25T19:51:07.715Z,1.15
2022-11-25T19:53:35.711Z,1.13
2022-11-25T19:56:05.146Z,1.18
2022-11-25T19:58:33.711Z,1.09
2022-11-25T20:01:06.465Z,1.09
2022-11-25T20:03:35.476Z,1.10
2022-11-25T20:06:05.527Z,1.04
2022-11-25T20:08:33.390Z,1.10
2022-11-25T20:11:02.138Z,1.13
2022-11-25T20:13:30.015Z,1.13
2022-11-25T20:15:58.883Z,1.14
2022-11-25T20:18:27.569Z,1.17
2022-11-25T20:21:06.503Z,1.13
2022-11-25T20:23:43.266Z,1.16
2022-11-25T20:26:19.538Z,1.21
2022-11-25T20:28:47.953Z,1.20
2022-11-25T20:31:17.780Z,1.21
2022-11-25T20:33:48.470Z,1.23
2022-11-25T20:36:20.150Z,1.19
2022-11-25T20:38:51.019Z,1.24
2022-11-25T20:41:25.918Z,1.28
2022-11-25T20:43:56.966Z,1.32
2022-11-25T20:46:30.671Z,1.28
2022-11-25T20:49:01.013Z,1.26
2022-11-25T20:51:29.997Z,1.28
2022-11-25T20:54:01.364Z,1.27
2022-11-25T20:56:30.285Z,1.32
2022-11-25T20:58:58.036Z,1.32
2022-11-25T21:01:26.429Z,1.35
2022-11-25T21:03:54.416Z,1.30
2022-11-25T21:06:28.335Z,1.28
2022-11-25T21:08:59.971Z,1.29
2022-11-25T21:11:33.375Z,1.30
2022-11-25T21:14:01.226Z,1.36
2022-11-25T21:16:29.972Z,1.38
2022-11-25T21:18:58.120Z,1.30
2022-11-25T21:21:33.280Z,1.38
2022-11-25T21:24:12.793Z,1.39
2022-11-25T21:26:41.499Z,1.41
2022-11-25T21:29:11.195Z,1.44
2022-11-25T21:31:39.717Z,1.45
2022-11-25T21:34:10.629Z,1.46
2022-11-25T21:36:39.402Z,1.39
2022-11-25T21:39:11.757Z,1.36
2022-11-25T21:41:40.332Z,1.38
2022-11-25T21:44:08.332Z,1.42
2022-11-25T21:46:36.952Z,1.38
2022-11-25T21:49:12.896Z,1.33
2022-11-25T21:51:41.086Z,1.34
2022-11-25T21:54:09.862Z,1.37
2022-11-25T21:56:39.357Z,1.30
2022-11-25T21:59:08.463Z,1.24
2022-11-25T22:01:37.114Z,1.21
2022-11-25T22:04:05.500Z,1.22
2022-11-25T22:06:34.094Z,1.27
2022-11-25T22:09:02.650Z,1.27
2022-11-25T22:11:34.882Z,1.26
2022-11-25T22:14:13.451Z,1.26
2022-11-25T22:16:41.730Z,1.30
2022-11-25T22:19:18.242Z,1.28
2022-11-25T22:21:46.787Z,1.20
2022-11-25T22:24:16.180Z,1.22
2022-11-25T22:26:46.320Z,1.20
2022-11-25T22:29:22.042Z,1.26
2022-11-25T22:31:50.574Z,1.24
2022-11-25T22:34:21.909Z,1.23
2022-11-25T22:36:51.882Z,1.20
2022-11-25T22:39:26.554Z,1.22
2022-11-25T22:42:01.537Z,1.27
2022-11-25T22:44:39.179Z,1.31
2022-11-25T22:47:07.885Z,1.33
2022-11-25T22:49:35.363Z,1.34
2022-11-25T22:52:03.756Z,1.31
2022-11-25T22:54:32.784Z,1.34
2022-11-25T22:57:01.046Z,1.38
2022-11-25T22:59:28.977Z,1.37
2022-11-25T23:01:57.708Z,1.38
2022-11-25T23:04:25.540Z,1.43
2022-11-25T23:06:54.925Z,1.41
2022-11-25T23:09:22.645Z,1.43
2022-11-25T23:11:50.689Z,1.48
2022-11-25T23:14:19.146Z,1.47
2022-11-25T23:16:47.737Z,1.44
2022-11-25T23:19:19.447Z,1.46
2022-11-25T23:21:47.673Z,1.50
2022-11-25T23:24:17.649Z,1.50
2022-11-25T23:29:31.217Z,1.50
2022-11-25T23:32:02.624Z,1.50
2022-11-25T23:34:35.091Z,1.50
2022-11-25T23:37:06.684Z,1.53
2022-11-25T23:39:34.431Z,1.53
2022-11-25T23:42:02.964Z,1.55
2022-11-25T23:44:31.855Z,1.55
2022-11-25T23:47:05.480Z,1.54
2022-11-25T23:49:44.836Z,1.52
2022-11-25T23:52:23.444Z,1.61
2022-11-25T23:54:52.955Z,1.58
2022-11-25T23:57:24.877Z,1.60
2022-11-25T23:59:53.490Z,1.59
